Terminal Aerodrome Forecast
Issued by NWS

Home | Current Version | Previous Version | Text Only | Print | Product List | Glossary On
Versions: 1 2 3 4 5 6 7 8 9 10 11 12 13 14 15 16 17 18 19 20 21 22 23 24 25 26 27 28 29 30
000
FTUS45 KSLC 302020 AAA
TAFEVW
TAF AMD
KEVW 302020Z 3020/0118 28013G18KT P6SM VCTS SCT090CB BKN150
     FM302100 29012G19KT P6SM SCT090 BKN150
     FM010200 30009KT P6SM SCT090 BKN150
     FM010600 13006KT P6SM BKN250
     FM011600 25009KT P6SM SCT250=

USA.gov is the U.S. government's official web portal to all federal, state and local government web resources and services.